createdAt,value
2023-01-13T00:00:55.234Z,99283.47
2023-01-13T00:02:29.266Z,99282.83
2023-01-13T00:03:41.960Z,99278.59
2023-01-13T00:05:14.652Z,99279.81
2023-01-13T00:06:47.642Z,99285.29
2023-01-13T00:08:00.135Z,99284.36
2023-01-13T00:22:29.854Z,99274.58
2023-01-13T00:24:03.948Z,99273.39
2023-01-13T00:25:17.851Z,99271.98
2023-01-13T00:26:52.340Z,99270.44
2023-01-13T00:28:15.195Z,99262.44
2023-01-13T00:37:54.105Z,99261.31
2023-01-13T00:39:19.388Z,99264.98
2023-01-13T00:40:52.243Z,99259.22
2023-01-13T00:42:22.924Z,99257.81
2023-01-13T00:43:55.776Z,99252.39
2023-01-13T00:45:29.686Z,99248.54
2023-01-13T00:47:03.720Z,99251.04
2023-01-13T00:56:38.410Z,99234.69
2023-01-13T00:58:12.236Z,99230.79
2023-01-13T00:59:44.822Z,99231.96
2023-01-13T01:02:58.420Z,99233.84
2023-01-13T01:04:32.422Z,99227.80
2023-01-13T01:05:55.199Z,99228.73
2023-01-13T01:07:09.311Z,99231.86
2023-01-13T01:08:43.512Z,99231.69
2023-01-13T01:10:18.885Z,99232.60
2023-01-13T01:11:55.043Z,99230.63
2023-01-13T01:14:41.369Z,99232.00
2023-01-13T01:33:08.440Z,99227.50
2023-01-13T01:34:41.297Z,99222.63
2023-01-13T01:36:14.225Z,99221.80
2023-01-13T01:37:47.330Z,99218.63
2023-01-13T01:39:13.086Z,99215.36
2023-01-13T01:40:54.964Z,99222.35
2023-01-13T01:42:05.501Z,99216.65
2023-01-13T01:43:36.769Z,99215.98
2023-01-13T01:45:07.456Z,99214.44
2023-01-13T01:46:41.889Z,99213.67
2023-01-13T01:48:16.643Z,99210.08
2023-01-13T01:49:52.765Z,99209.13
2023-01-13T02:00:12.522Z,99200.08
2023-01-13T02:01:45.538Z,99200.59
2023-01-13T02:02:58.290Z,99201.35
2023-01-13T02:04:31.483Z,99201.14
2023-01-13T02:05:53.954Z,99196.54
2023-01-13T02:22:28.700Z,99202.55
2023-01-13T02:23:57.206Z,99198.40
2023-01-13T02:25:26.814Z,99198.90
2023-01-13T02:27:05.366Z,99196.07
2023-01-13T02:28:47.480Z,99195.98
2023-01-13T02:30:27.740Z,99196.36
2023-01-13T02:32:03.229Z,99198.01
2023-01-13T02:33:43.591Z,99196.50
2023-01-13T02:35:31.295Z,99194.98
2023-01-13T02:36:56.027Z,99194.43
2023-01-13T02:38:28.718Z,99187.76
2023-01-13T02:40:11.335Z,99190.59
2023-01-13T02:41:44.808Z,99190.67
2023-01-13T02:43:24.639Z,99188.08
2023-01-13T02:44:57.668Z,99187.45
2023-01-13T02:46:19.491Z,99181.96
2023-01-13T02:48:07.125Z,99181.73
2023-01-13T02:49:39.984Z,99176.30
2023-01-13T02:51:13.676Z,99173.52
2023-01-13T02:54:43.410Z,99169.37
2023-01-13T02:56:20.292Z,99163.85
2023-01-13T02:57:53.522Z,99159.34
2023-01-13T02:59:26.829Z,99161.08
2023-01-13T03:15:10.446Z,99143.68
2023-01-13T03:16:58.222Z,99141.25
2023-01-13T03:18:29.685Z,99139.84
2023-01-13T03:20:26.140Z,99136.30
2023-01-13T03:22:04.453Z,99134.42
2023-01-13T03:23:39.955Z,99129.58
2023-01-13T03:25:16.629Z,99127.55
2023-01-13T03:27:00.432Z,99126.09
2023-01-13T03:35:30.456Z,99125.35
2023-01-13T03:37:03.238Z,99122.33
2023-01-13T03:38:38.449Z,99122.84
2023-01-13T03:40:14.727Z,99120.61
2023-01-13T03:41:59.724Z,99122.18
2023-01-13T03:43:33.483Z,99121.20
2023-01-13T03:45:24.679Z,99131.58
2023-01-13T03:47:00.159Z,99127.80
2023-01-13T03:56:43.229Z,99144.04
2023-01-13T03:58:16.185Z,99135.56
2023-01-13T03:59:48.896Z,99132.56
2023-01-13T04:01:24.907Z,99127.59
2023-01-13T04:03:13.301Z,99126.05
2023-01-13T04:05:01.117Z,99121.38
2023-01-13T04:06:33.880Z,99123.16
2023-01-13T04:07:55.419Z,99120.67
2023-01-13T04:09:30.666Z,99122.93
2023-01-13T04:11:09.551Z,99121.70
2023-01-13T04:12:47.946Z,99124.00
2023-01-13T04:14:21.633Z,99119.00
2023-01-13T04:19:12.930Z,99123.26
2023-01-13T04:28:45.240Z,99118.13
2023-01-13T04:30:17.968Z,99116.70
2023-01-13T04:31:50.697Z,99118.62
2023-01-13T04:33:23.543Z,99119.61
2023-01-13T04:34:56.477Z,99116.20
2023-01-13T04:36:08.747Z,99121.14
2023-01-13T04:39:40.389Z,99128.29
2023-01-13T04:41:13.178Z,99130.09
2023-01-13T04:42:45.920Z,99127.05
2023-01-13T04:44:18.702Z,99124.85
2023-01-13T04:47:50.377Z,99125.96
2023-01-13T04:49:22.859Z,99126.42
2023-01-13T04:50:55.850Z,99127.30
2023-01-13T04:52:28.624Z,99127.70
2023-01-13T04:54:02.526Z,99129.85
2023-01-13T04:55:36.506Z,99129.95
2023-01-13T05:03:46.008Z,99127.64
2023-01-13T05:05:18.899Z,99126.73
2023-01-13T05:06:51.601Z,99125.05
2023-01-13T05:08:24.824Z,99118.96
2023-01-13T05:09:37.612Z,99113.14
2023-01-13T05:12:40.105Z,99114.14
2023-01-13T05:14:25.220Z,99116.30
2023-01-13T05:15:36.348Z,99114.23
2023-01-13T05:17:21.600Z,99110.89
2023-01-13T05:21:37.297Z,99111.83
2023-01-13T05:23:22.759Z,99106.78
2023-01-13T05:24:54.084Z,99106.30
2023-01-13T05:26:26.691Z,99106.74
2023-01-13T05:27:59.515Z,99109.10
2023-01-13T05:36:06.163Z,99117.77
2023-01-13T05:37:39.078Z,99121.73
2023-01-13T05:38:51.421Z,99120.55
2023-01-13T05:40:22.891Z,99120.43
2023-01-13T05:41:54.221Z,99118.31
2023-01-13T05:43:41.759Z,99120.27
2023-01-13T05:45:15.941Z,99122.77
2023-01-13T05:46:50.095Z,99121.10
2023-01-13T05:48:22.978Z,99119.13
2023-01-13T05:49:55.683Z,99117.24
2023-01-13T06:19:22.280Z,99118.75
2023-01-13T06:20:56.619Z,99119.74
2023-01-13T06:22:30.997Z,99121.20
2023-01-13T06:24:06.653Z,99123.81
2023-01-13T06:25:33.296Z,99122.09
2023-01-13T06:27:14.492Z,99121.88
2023-01-13T06:28:49.874Z,99119.48
2023-01-13T06:30:24.524Z,99122.27
2023-01-13T06:31:59.938Z,99120.41
2023-01-13T06:33:35.466Z,99119.79
2023-01-13T06:47:05.833Z,99113.05
2023-01-13T06:48:40.137Z,99114.50
2023-01-13T06:50:14.203Z,99114.09
2023-01-13T06:51:48.551Z,99116.77
2023-01-13T07:02:38.045Z,99124.77
2023-01-13T07:04:10.970Z,99126.42
2023-01-13T07:05:44.705Z,99128.34
2023-01-13T07:07:18.698Z,99133.48
2023-01-13T07:08:51.664Z,99133.95
2023-01-13T07:10:05.250Z,99138.73
2023-01-13T07:11:17.927Z,99136.47
2023-01-13T07:12:51.154Z,99139.33
2023-01-13T07:14:01.867Z,99140.38
2023-01-13T07:15:39.554Z,99139.92
2023-01-13T07:18:52.147Z,99132.71
2023-01-13T07:20:26.218Z,99133.92
2023-01-13T07:22:00.626Z,99134.06
2023-01-13T07:23:14.556Z,99136.12
2023-01-13T07:32:41.774Z,99123.04
2023-01-13T07:34:14.550Z,99125.48
2023-01-13T07:35:47.295Z,99125.83
2023-01-13T07:37:20.196Z,99132.31
2023-01-13T07:38:32.642Z,99135.04
2023-01-13T07:40:06.573Z,99132.42
2023-01-13T07:41:37.709Z,99134.86
2023-01-13T07:43:07.177Z,99140.08
2023-01-13T07:49:25.198Z,99144.08
2023-01-13T07:50:59.253Z,99144.52
2023-01-13T07:52:33.503Z,99144.93
2023-01-13T07:54:07.717Z,99143.65
2023-01-13T07:55:35.003Z,99142.44
2023-01-13T07:57:10.180Z,99147.61
2023-01-13T07:58:25.921Z,99144.02
2023-01-13T08:06:08.776Z,99145.97
2023-01-13T08:07:22.389Z,99144.98
2023-01-13T08:08:56.421Z,99142.86
2023-01-13T08:10:30.665Z,99145.77
2023-01-13T08:12:04.833Z,99141.65
2023-01-13T08:13:39.230Z,99147.80
2023-01-13T08:45:43.136Z,99171.20
2023-01-13T08:47:18.902Z,99171.38
2023-01-13T08:48:53.385Z,99178.74
2023-01-13T08:50:27.909Z,99184.58
2023-01-13T08:52:04.932Z,99184.17
2023-01-13T08:54:21.128Z,99187.52
2023-01-13T08:57:09.013Z,99188.67
2023-01-13T09:03:14.284Z,99189.75
2023-01-13T09:04:59.416Z,99185.77
2023-01-13T09:06:33.608Z,99184.48
2023-01-13T09:08:07.942Z,99184.42
2023-01-13T09:09:42.941Z,99185.49
2023-01-13T09:11:17.624Z,99175.05
2023-01-13T09:14:49.347Z,99154.26
2023-01-13T09:16:24.615Z,99153.95
2023-01-13T09:17:59.482Z,99152.16
2023-01-13T09:19:35.140Z,99148.33
2023-01-13T09:21:11.384Z,99142.73
2023-01-13T09:22:48.772Z,99142.84
2023-01-13T09:24:24.553Z,99148.81
2023-01-13T09:26:01.264Z,99140.79
2023-01-13T09:27:36.082Z,99131.93
2023-01-13T09:28:59.122Z,99135.63
2023-01-13T09:30:27.093Z,99130.41
2023-01-13T09:33:31.734Z,99126.44
2023-01-13T09:51:41.163Z,99114.95
2023-01-13T09:53:13.810Z,99114.68
2023-01-13T09:54:46.605Z,99111.17
2023-01-13T09:56:34.531Z,99115.55
2023-01-13T09:58:13.082Z,99112.23
2023-01-13T09:59:45.767Z,99107.30
2023-01-13T10:01:13.249Z,99114.61
2023-01-13T10:03:01.634Z,99107.77
2023-01-13T10:04:34.733Z,99109.90
2023-01-13T10:06:07.499Z,99106.37
2023-01-13T10:07:41.231Z,99108.37
2023-01-13T10:09:20.920Z,99108.27
2023-01-13T10:10:49.372Z,99104.16
2023-01-13T10:12:20.167Z,99105.30
2023-01-13T10:23:40.032Z,99098.34
2023-01-13T10:25:23.721Z,99095.16
2023-01-13T10:33:28.728Z,99087.07
2023-01-13T10:35:03.080Z,99086.91
2023-01-13T10:36:59.667Z,99088.43
2023-01-13T10:38:37.065Z,99088.83
2023-01-13T10:40:12.531Z,99089.27
2023-01-13T10:41:47.703Z,99092.09
2023-01-13T10:54:25.946Z,99078.17
2023-01-13T10:56:04.380Z,99077.36
2023-01-13T10:57:55.131Z,99077.23
2023-01-13T10:59:28.139Z,99076.61
2023-01-13T11:01:06.965Z,99070.36
2023-01-13T11:02:42.932Z,99063.48
2023-01-13T11:04:22.969Z,99062.77
2023-01-13T11:06:03.087Z,99060.36
2023-01-13T11:09:23.878Z,99055.84
2023-01-13T11:11:01.377Z,99055.80
2023-01-13T11:12:40.544Z,99058.36
2023-01-13T11:14:17.529Z,99049.27
2023-01-13T11:15:51.424Z,99044.89
2023-01-13T11:17:25.707Z,99048.10
2023-01-13T11:19:22.767Z,99050.25
2023-01-13T11:20:58.701Z,99045.20
2023-01-13T11:22:43.723Z,99045.91
2023-01-13T11:24:16.563Z,99042.75
2023-01-13T11:25:52.104Z,99048.44
2023-01-13T11:40:28.539Z,99037.60
2023-01-13T11:42:05.647Z,99039.88
2023-01-13T11:43:42.829Z,99037.73
2023-01-13T11:45:18.586Z,99034.48
2023-01-13T11:46:44.423Z,99039.23
2023-01-13T11:53:15.807Z,99036.13
2023-01-13T12:00:27.993Z,99047.15
2023-01-13T12:02:19.346Z,99045.57
2023-01-13T12:04:07.154Z,99045.55
2023-01-13T12:05:48.782Z,99042.45
2023-01-13T12:07:23.145Z,99041.64
2023-01-13T12:08:48.708Z,99047.27
2023-01-13T12:10:39.588Z,99041.93
2023-01-13T12:12:13.452Z,99046.65
2023-01-13T12:14:10.390Z,99042.17
2023-01-13T12:15:41.465Z,99041.76
2023-01-13T12:17:29.186Z,99034.04
2023-01-13T12:19:13.617Z,99034.56
2023-01-13T12:20:55.617Z,99031.98
2023-01-13T12:22:37.064Z,99036.73
2023-01-13T12:24:09.580Z,99033.92
2023-01-13T12:26:00.345Z,99024.70
2023-01-13T12:27:36.318Z,99024.28
2023-01-13T12:29:27.066Z,99023.35
2023-01-13T12:31:05.561Z,99024.98
2023-01-13T12:32:38.197Z,99025.45
2023-01-13T12:33:53.916Z,99024.73
2023-01-13T12:35:27.136Z,99021.14
2023-01-13T12:36:47.486Z,99014.97
2023-01-13T12:42:03.307Z,99011.82
2023-01-13T12:43:41.171Z,99009.77
2023-01-13T12:45:27.061Z,99007.73
2023-01-13T12:47:01.705Z,99007.58
2023-01-13T12:48:40.503Z,99007.38
2023-01-13T12:50:16.526Z,99008.91
2023-01-13T12:51:50.735Z,99004.10
2023-01-13T12:54:56.642Z,99003.23
2023-01-13T12:56:35.463Z,98996.86
2023-01-13T12:58:46.153Z,98993.91
2023-01-13T13:00:20.377Z,98992.35
2023-01-13T13:01:54.669Z,98992.76
2023-01-13T13:03:25.789Z,98990.45
2023-01-13T13:05:25.979Z,98980.46
2023-01-13T13:07:07.857Z,98980.72
2023-01-13T13:08:58.933Z,98978.48
2023-01-13T13:10:31.717Z,98972.70
2023-01-13T13:12:19.238Z,98976.19
2023-01-13T13:13:50.971Z,98977.33
2023-01-13T13:15:24.207Z,98975.59
2023-01-13T13:17:06.018Z,98974.89
2023-01-13T13:18:41.482Z,98982.11
2023-01-13T13:20:19.997Z,98979.27
2023-01-13T13:21:55.740Z,98978.77
2023-01-13T13:23:28.836Z,98978.88
2023-01-13T13:25:01.828Z,98983.27
2023-01-13T13:26:47.026Z,98981.36
2023-01-13T13:28:25.805Z,98973.58
2023-01-13T13:30:34.762Z,98981.98
2023-01-13T13:32:34.670Z,98981.09
2023-01-13T13:34:20.890Z,98981.22
2023-01-13T13:36:11.929Z,98990.81
2023-01-13T13:37:46.111Z,98985.27
2023-01-13T13:39:29.286Z,98994.79
2023-01-13T13:41:01.122Z,98992.60
2023-01-13T13:42:32.260Z,98992.00
2023-01-13T13:44:03.488Z,98990.86
2023-01-13T13:45:34.742Z,98995.70
2023-01-13T13:47:08.600Z,98993.83
2023-01-13T13:48:42.266Z,98994.74
2023-01-13T13:50:16.347Z,98994.98
2023-01-13T13:52:01.972Z,99001.91
2023-01-13T14:04:20.364Z,98999.98
2023-01-13T14:05:57.326Z,99001.84
2023-01-13T14:09:17.658Z,99001.99
2023-01-13T14:10:56.902Z,99004.54
2023-01-13T14:14:17.175Z,98997.72
2023-01-13T14:16:08.682Z,98995.44
2023-01-13T14:19:25.103Z,98993.73
2023-01-13T14:21:03.621Z,98993.20
2023-01-13T14:22:36.396Z,98992.70
2023-01-13T14:24:12.305Z,98994.34
2023-01-13T14:25:46.319Z,98991.98
2023-01-13T14:27:19.112Z,98992.20
2023-01-13T14:29:00.745Z,98995.73
2023-01-13T14:30:22.059Z,98999.77
2023-01-13T14:31:54.907Z,98996.58
2023-01-13T14:33:27.710Z,98992.38
2023-01-13T14:35:00.608Z,98996.60
2023-01-13T14:36:51.743Z,98991.85
2023-01-13T14:38:24.474Z,98993.59
2023-01-13T14:39:51.746Z,98993.11
2023-01-13T14:41:33.484Z,98990.41
2023-01-13T14:43:06.650Z,98992.07
2023-01-13T14:44:40.978Z,98989.20
2023-01-13T14:46:22.737Z,98989.20
2023-01-13T14:47:59.587Z,98986.98
2023-01-13T14:49:33.919Z,98990.80
2023-01-13T14:51:13.952Z,98989.84
2023-01-13T14:52:50.903Z,98990.71
2023-01-13T14:54:09.099Z,98988.05
2023-01-13T14:55:49.283Z,98987.42
2023-01-13T14:57:26.357Z,98988.45
2023-01-13T14:59:14.056Z,98986.60
2023-01-13T15:00:47.104Z,98987.32
2023-01-13T15:16:54.700Z,99001.60
2023-01-13T15:18:07.232Z,99003.67
2023-01-13T15:19:39.913Z,99011.13
2023-01-13T15:21:15.640Z,99004.64
2023-01-13T15:22:48.644Z,99005.71
2023-01-13T15:24:21.707Z,99004.73
2023-01-13T15:25:34.481Z,99002.65
2023-01-13T15:27:16.375Z,99002.65
2023-01-13T15:29:01.545Z,99005.11
2023-01-13T15:30:34.991Z,99001.99
2023-01-13T15:33:48.509Z,98998.54
2023-01-13T15:35:22.675Z,99000.48
2023-01-13T15:36:48.354Z,98998.05
2023-01-13T15:38:22.605Z,99002.29
2023-01-13T15:39:57.799Z,99002.69
2023-01-13T15:41:35.226Z,98999.69
2023-01-13T15:43:08.087Z,98996.96
2023-01-13T15:44:41.083Z,99000.05
2023-01-13T15:46:13.414Z,99000.08
2023-01-13T15:47:48.664Z,99002.22
2023-01-13T16:04:30.985Z,98990.14
2023-01-13T16:06:03.805Z,98993.02
2023-01-13T16:07:36.580Z,99001.60
2023-01-13T16:09:15.255Z,99001.31
2023-01-13T16:10:48.309Z,99003.55
2023-01-13T16:12:00.770Z,99003.61
2023-01-13T16:13:33.608Z,99005.07
2023-01-13T16:34:28.707Z,99007.96
2023-01-13T16:36:10.747Z,99009.91
2023-01-13T16:37:47.307Z,99010.06
2023-01-13T16:51:41.114Z,99000.34
2023-01-13T16:53:15.250Z,99004.85
2023-01-13T16:54:49.830Z,99008.83
2023-01-13T16:56:23.863Z,98999.91
2023-01-13T17:05:56.164Z,99001.48
2023-01-13T17:07:38.735Z,99003.61
2023-01-13T17:09:14.644Z,98997.64
2023-01-13T17:10:47.824Z,98988.95
2023-01-13T17:12:00.468Z,98993.44
2023-01-13T17:13:33.384Z,98998.31
2023-01-13T17:15:06.504Z,98997.96
2023-01-13T17:16:41.056Z,98999.78
2023-01-13T17:18:20.163Z,98999.61
2023-01-13T17:19:53.762Z,99000.80
2023-01-13T17:26:09.777Z,99004.02
2023-01-13T17:27:43.987Z,99006.59
2023-01-13T17:29:18.507Z,99012.77
2023-01-13T17:30:42.117Z,99015.39
2023-01-13T17:38:49.161Z,99012.77
2023-01-13T17:40:24.872Z,99012.02
2023-01-13T17:41:57.695Z,99011.20
2023-01-13T17:43:10.246Z,99010.71
2023-01-13T17:44:43.296Z,99016.91
2023-01-13T17:45:55.755Z,99009.05
2023-01-13T17:47:28.748Z,99011.58
2023-01-13T17:50:42.364Z,99010.43
2023-01-13T17:52:16.520Z,99010.20
2023-01-13T17:53:50.818Z,99018.36
2023-01-13T17:56:36.810Z,99013.77
2023-01-13T17:58:16.652Z,99015.23
2023-01-13T17:59:54.447Z,99017.61
2023-01-13T18:07:42.952Z,99014.38
2023-01-13T18:09:17.355Z,99009.91
2023-01-13T18:10:51.967Z,99014.70
2023-01-13T18:12:15.084Z,99010.66
2023-01-13T18:13:49.521Z,99014.51
2023-01-13T18:15:03.727Z,99016.89
2023-01-13T18:16:40.994Z,99018.93
2023-01-13T18:19:26.687Z,99017.80
2023-01-13T18:20:59.458Z,99012.77
2023-01-13T18:22:32.157Z,99011.36
2023-01-13T18:24:04.951Z,99009.64
2023-01-13T18:25:37.516Z,99011.86
2023-01-13T18:27:09.971Z,99012.35
2023-01-13T18:28:44.392Z,99016.65
2023-01-13T18:30:19.211Z,99016.16
2023-01-13T18:31:54.275Z,99017.86
2023-01-13T18:41:07.199Z,99027.70
2023-01-13T18:42:19.745Z,99027.70
2023-01-13T18:43:53.820Z,99028.81
2023-01-13T18:45:28.419Z,99028.95
2023-01-13T18:46:42.795Z,99026.84
2023-01-13T19:18:35.039Z,99032.77
2023-01-13T19:20:08.013Z,99036.73
2023-01-13T19:21:42.145Z,99037.54
2023-01-13T19:23:21.146Z,99045.52
2023-01-13T19:24:44.377Z,99047.67
2023-01-13T19:26:17.369Z,99049.70
2023-01-13T19:27:30.080Z,99051.23
2023-01-13T19:29:02.964Z,99055.06
2023-01-13T19:30:36.834Z,99049.20
2023-01-13T19:32:10.707Z,99049.31
2023-01-13T19:33:44.924Z,99052.08
2023-01-13T19:35:20.247Z,99056.39
2023-01-13T19:36:56.919Z,99056.52
2023-01-13T19:38:30.920Z,99054.89
2023-01-13T19:43:42.877Z,99060.39
2023-01-13T19:45:04.046Z,99062.92
2023-01-13T19:46:53.144Z,99060.36
2023-01-13T19:48:50.754Z,99063.40
2023-01-13T19:52:13.788Z,99071.92
2023-01-13T19:53:46.467Z,99074.05
2023-01-13T19:55:27.860Z,99070.96
2023-01-13T19:59:13.396Z,99071.18
2023-01-13T20:00:46.343Z,99070.57
2023-01-13T20:02:24.283Z,99072.20
2023-01-13T20:04:25.145Z,99069.86
2023-01-13T20:06:22.261Z,99070.22
2023-01-13T20:08:02.080Z,99071.27
